createdAt,value
2023-04-30T00:03:19.430Z,8.88
2023-04-30T00:08:23.756Z,6.20
2023-04-30T00:13:27.544Z,9.57
2023-04-30T00:18:31.590Z,6.95
2023-04-30T00:23:35.568Z,5.65
2023-04-30T00:28:39.920Z,5.97
2023-04-30T00:33:44.182Z,4.22
2023-04-30T00:38:48.101Z,5.75
2023-04-30T00:43:52.195Z,5.30
2023-04-30T00:48:56.349Z,7.22
2023-04-30T00:54:04.251Z,6.03
2023-04-30T00:59:08.196Z,5.95
2023-04-30T01:04:13.075Z,4.38
2023-04-30T01:09:17.186Z,5.90
2023-04-30T01:14:42.512Z,4.20
2023-04-30T01:19:47.357Z,5.97
2023-04-30T01:25:20.050Z,3.80
2023-04-30T01:30:26.239Z,3.67
2023-04-30T01:35:53.807Z,3.70
2023-04-30T01:41:00.796Z,4.13
2023-04-30T01:46:23.214Z,3.42
2023-04-30T01:51:40.862Z,13.43
2023-04-30T01:57:03.702Z,4.20
2023-04-30T02:02:08.136Z,4.80
2023-04-30T02:07:14.304Z,4.68
2023-04-30T02:12:18.239Z,4.15
2023-04-30T02:17:22.584Z,4.63
2023-04-30T02:22:27.165Z,5.13
2023-04-30T02:27:32.736Z,4.78
2023-04-30T02:32:37.309Z,5.28
2023-04-30T02:37:41.694Z,5.05
2023-04-30T02:42:45.815Z,5.88
2023-04-30T02:47:49.757Z,4.93
2023-04-30T02:52:54.049Z,7.35
2023-04-30T02:57:58.046Z,5.53
2023-04-30T03:03:02.239Z,5.82
2023-04-30T03:08:06.634Z,5.53
2023-04-30T03:13:10.516Z,5.13
2023-04-30T03:18:14.807Z,6.05
2023-04-30T03:23:18.794Z,5.15
2023-04-30T03:28:22.938Z,6.15
2023-04-30T03:33:27.266Z,6.30
2023-04-30T03:38:31.639Z,5.38
2023-04-30T03:43:35.661Z,6.30
2023-04-30T03:48:39.599Z,7.10
2023-04-30T03:53:43.657Z,7.90
2023-04-30T03:58:47.962Z,7.30
2023-04-30T04:03:52.121Z,9.40
2023-04-30T04:08:56.343Z,6.78
2023-04-30T04:14:00.169Z,6.80
2023-04-30T04:19:05.258Z,6.80
2023-04-30T04:24:10.231Z,6.60
2023-04-30T04:29:14.166Z,7.40
2023-04-30T04:34:20.569Z,7.25
2023-04-30T04:39:24.746Z,9.55
2023-04-30T04:44:29.573Z,7.88
2023-04-30T04:49:33.720Z,6.75
2023-04-30T04:54:37.796Z,9.68
2023-04-30T04:59:41.887Z,9.25
2023-04-30T05:04:48.049Z,9.23
2023-04-30T05:09:52.069Z,7.10
2023-04-30T05:14:56.254Z,7.75
2023-04-30T05:20:00.669Z,9.75
2023-04-30T05:25:06.040Z,10.50
2023-04-30T05:30:10.618Z,9.43
2023-04-30T05:35:14.640Z,8.65
2023-04-30T05:40:19.021Z,9.75
2023-04-30T05:45:23.756Z,8.13
2023-04-30T05:50:27.881Z,8.77
2023-04-30T05:55:32.472Z,8.85
2023-04-30T06:00:36.764Z,8.90
2023-04-30T06:05:42.149Z,8.32
2023-04-30T06:10:46.463Z,9.55
2023-04-30T06:15:50.426Z,7.57
2023-04-30T06:20:54.589Z,8.30
2023-04-30T06:25:58.613Z,8.27
2023-04-30T06:31:02.687Z,9.00
2023-04-30T06:36:07.179Z,7.47
2023-04-30T06:41:11.237Z,7.90
2023-04-30T06:46:16.316Z,8.15
2023-04-30T06:51:20.164Z,8.05
2023-04-30T06:56:24.224Z,8.80
2023-04-30T07:01:28.360Z,7.80
2023-04-30T07:06:32.255Z,8.63
2023-04-30T07:11:36.548Z,7.20
2023-04-30T07:16:40.308Z,8.10
2023-04-30T07:21:45.206Z,9.23
2023-04-30T07:26:49.311Z,9.25
2023-04-30T07:31:53.716Z,9.00
2023-04-30T07:36:57.758Z,7.60
2023-04-30T07:42:04.075Z,8.80
2023-04-30T07:47:08.420Z,7.97
2023-04-30T07:52:13.084Z,9.60
2023-04-30T07:57:17.140Z,8.52
2023-04-30T08:02:21.776Z,9.00
2023-04-30T08:07:26.272Z,10.77
2023-04-30T08:12:30.281Z,9.90
2023-04-30T08:17:35.754Z,9.55
2023-04-30T08:22:40.344Z,9.45
2023-04-30T08:27:44.725Z,10.38
2023-04-30T08:32:50.242Z,10.75
2023-04-30T08:37:54.887Z,10.13
2023-04-30T08:43:06.991Z,10.20
2023-04-30T08:48:17.091Z,8.95
2023-04-30T08:53:22.433Z,9.70
2023-04-30T08:58:26.504Z,9.52
2023-04-30T09:03:33.473Z,9.20
2023-04-30T09:08:48.703Z,9.38
2023-04-30T09:13:54.335Z,10.93
2023-04-30T09:18:58.460Z,8.75
2023-04-30T09:24:05.964Z,11.25
2023-04-30T09:29:10.916Z,8.93
2023-04-30T09:34:15.919Z,9.27
2023-04-30T09:39:19.857Z,11.00
2023-04-30T09:44:32.723Z,9.90
2023-04-30T09:49:38.957Z,10.10
2023-04-30T09:54:45.929Z,10.05
2023-04-30T09:59:53.459Z,8.77
2023-04-30T10:05:00.191Z,7.93
2023-04-30T10:10:12.062Z,9.90
2023-04-30T10:15:21.483Z,8.68
2023-04-30T10:20:27.884Z,11.65
2023-04-30T10:25:33.936Z,10.60
2023-04-30T10:30:39.270Z,9.95
2023-04-30T10:36:09.960Z,9.23
2023-04-30T10:41:13.887Z,8.23
2023-04-30T10:46:24.992Z,9.02
2023-04-30T10:51:50.548Z,10.02
2023-04-30T10:56:57.337Z,10.20
2023-04-30T11:02:03.025Z,9.88
2023-04-30T11:07:11.357Z,8.18
2023-04-30T11:12:21.839Z,10.43
2023-04-30T11:17:28.381Z,13.38
2023-04-30T11:22:36.835Z,9.98
2023-04-30T11:27:45.927Z,10.85
2023-04-30T11:32:51.381Z,9.93
2023-04-30T11:37:58.443Z,9.40
2023-04-30T11:43:02.363Z,10.75
2023-04-30T11:48:06.667Z,11.43
2023-04-30T11:53:11.278Z,11.05
2023-04-30T11:58:16.356Z,9.65
2023-04-30T12:03:20.640Z,8.68
2023-04-30T12:08:25.023Z,9.60
2023-04-30T12:13:32.041Z,8.43
2023-04-30T12:18:36.111Z,8.13
2023-04-30T12:23:40.209Z,10.23
2023-04-30T12:28:44.237Z,11.15
2023-04-30T12:33:56.534Z,9.05
2023-04-30T12:39:08.614Z,10.68
2023-04-30T12:44:18.006Z,12.80
2023-04-30T12:49:30.262Z,9.85
2023-04-30T12:54:35.324Z,9.90
2023-04-30T12:59:57.071Z,9.35
2023-04-30T13:05:01.567Z,10.73
2023-04-30T13:10:08.098Z,10.68
2023-04-30T13:15:12.202Z,10.50
2023-04-30T13:20:19.801Z,12.25
2023-04-30T13:25:24.117Z,11.02
2023-04-30T13:30:28.176Z,9.02
2023-04-30T13:35:32.122Z,9.10
2023-04-30T13:40:36.098Z,10.35
2023-04-30T13:45:40.085Z,9.80
2023-04-30T13:50:44.093Z,13.50
2023-04-30T13:55:47.905Z,11.35
2023-04-30T14:00:52.335Z,12.05
2023-04-30T14:05:56.753Z,8.90
2023-04-30T14:11:01.059Z,9.52
2023-04-30T14:16:05.211Z,11.63
2023-04-30T14:21:09.072Z,11.98
2023-04-30T14:26:13.678Z,9.55
2023-04-30T14:31:17.612Z,10.00
2023-04-30T14:36:21.815Z,10.10
2023-04-30T14:41:26.592Z,10.07
2023-04-30T14:46:30.559Z,9.90
2023-04-30T14:51:34.587Z,9.90
2023-04-30T14:56:38.567Z,11.45
2023-04-30T15:01:43.469Z,10.25
2023-04-30T15:06:48.472Z,10.52
2023-04-30T15:11:52.608Z,8.80
2023-04-30T15:16:57.521Z,12.00
2023-04-30T15:22:01.894Z,11.88
2023-04-30T15:27:06.079Z,11.68
2023-04-30T15:32:09.920Z,11.80
2023-04-30T15:37:13.980Z,12.80
2023-04-30T15:42:17.734Z,13.20
2023-04-30T15:47:23.854Z,12.05
2023-04-30T15:52:28.168Z,11.10
2023-04-30T15:57:31.939Z,9.10
2023-04-30T16:02:36.898Z,7.47
2023-04-30T16:07:43.905Z,7.13
2023-04-30T16:12:48.639Z,8.38
2023-04-30T16:17:52.712Z,9.63
2023-04-30T16:22:57.844Z,6.57
2023-04-30T16:28:01.749Z,7.35
2023-04-30T16:33:06.260Z,8.85
2023-04-30T16:38:10.933Z,5.88
2023-04-30T16:43:15.069Z,6.30
2023-04-30T16:48:18.923Z,6.72
2023-04-30T16:53:23.045Z,6.45
2023-04-30T16:58:27.128Z,8.15
2023-04-30T17:03:35.695Z,5.75
2023-04-30T17:08:40.982Z,6.32
2023-04-30T17:13:44.885Z,6.85
2023-04-30T17:18:48.941Z,7.15
2023-04-30T17:23:53.009Z,4.97
2023-04-30T17:28:57.234Z,4.65
2023-04-30T17:34:01.069Z,4.93
2023-04-30T17:39:06.701Z,5.25
2023-04-30T17:44:10.499Z,3.80
2023-04-30T17:49:14.661Z,5.30
2023-04-30T17:54:18.615Z,5.72
2023-04-30T17:59:22.965Z,5.45
2023-04-30T18:04:27.042Z,5.93
2023-04-30T18:09:32.838Z,5.88
2023-04-30T18:14:36.853Z,6.28
2023-04-30T18:19:45.130Z,5.78
2023-04-30T18:24:48.989Z,5.97
2023-04-30T18:29:53.358Z,8.43
2023-04-30T18:34:57.825Z,7.40
2023-04-30T18:40:01.663Z,6.85
2023-04-30T18:45:09.859Z,6.50
2023-04-30T18:50:18.154Z,6.50
2023-04-30T18:55:21.940Z,6.40
2023-04-30T19:00:26.204Z,6.25
2023-04-30T19:05:30.039Z,6.75
2023-04-30T19:10:37.349Z,6.00
2023-04-30T19:15:44.636Z,6.30
2023-04-30T19:21:02.690Z,5.72
2023-04-30T19:26:06.727Z,6.55
2023-04-30T19:31:12.089Z,6.15
2023-04-30T19:36:16.319Z,7.00
2023-04-30T19:41:20.228Z,5.90
2023-04-30T19:46:24.291Z,6.47
2023-04-30T19:51:28.369Z,6.00
2023-04-30T19:56:32.857Z,7.00
2023-04-30T20:01:37.562Z,5.57
2023-04-30T20:06:41.576Z,5.75
2023-04-30T20:11:50.254Z,5.50
2023-04-30T20:16:54.804Z,5.57
2023-04-30T20:21:58.724Z,4.90
2023-04-30T20:27:04.901Z,5.50
2023-04-30T20:32:09.337Z,5.97
2023-04-30T20:37:13.464Z,6.15
2023-04-30T20:42:17.595Z,5.93
2023-04-30T20:47:21.672Z,4.32
2023-04-30T20:52:25.709Z,5.88
2023-04-30T20:57:29.777Z,5.32
2023-04-30T21:02:34.904Z,4.75
2023-04-30T21:07:39.004Z,5.00
2023-04-30T21:12:43.347Z,5.63
2023-04-30T21:17:47.302Z,4.18
2023-04-30T21:22:53.165Z,4.10
2023-04-30T21:27:57.704Z,4.40
2023-04-30T21:33:01.711Z,4.50
2023-04-30T21:38:05.950Z,4.13
2023-04-30T21:43:10.779Z,5.28
2023-04-30T21:48:14.858Z,5.22
2023-04-30T21:53:19.015Z,4.45
2023-04-30T21:58:23.017Z,4.75
2023-04-30T22:03:27.220Z,4.75
2023-04-30T22:08:31.330Z,4.68
2023-04-30T22:13:35.481Z,6.22
2023-04-30T22:18:40.334Z,6.00
2023-04-30T22:23:44.298Z,5.03
2023-04-30T22:28:48.229Z,4.90
2023-04-30T22:33:52.387Z,5.32
2023-04-30T22:38:57.075Z,6.00
2023-04-30T22:44:01.783Z,4.85
2023-04-30T22:49:05.977Z,4.85
2023-04-30T22:54:10.567Z,5.72
2023-04-30T22:59:14.606Z,4.88
2023-04-30T23:04:18.576Z,4.72
2023-04-30T23:09:22.651Z,4.60
2023-04-30T23:14:26.790Z,4.47
2023-04-30T23:19:30.575Z,4.93
2023-04-30T23:24:36.679Z,5.28
2023-04-30T23:29:40.765Z,4.63
2023-04-30T23:34:44.797Z,5.03
2023-04-30T23:39:48.648Z,5.93
2023-04-30T23:44:52.761Z,6.30
2023-04-30T23:49:57.259Z,5.70
2023-04-30T23:55:01.429Z,5.88
